sensor_id;sensor_type;location;lat;lon;timestamp;pressure;altitude;pressure_sealevel;temperature;humidity
29879;BME280;16752;53.364;-1.488;2023-05-13T00:01:21;101606.81;;;17.75;41.96
29879;BME280;16752;53.364;-1.488;2023-05-13T00:04:08;101658.38;;;18.06;41.34
29879;BME280;16752;53.364;-1.488;2023-05-13T00:06:52;101704.28;;;17.34;43.79
29879;BME280;16752;53.364;-1.488;2023-05-13T00:09:45;101697.06;;;18.19;41.66
29879;BME280;16752;53.364;-1.488;2023-05-13T00:12:40;101749.50;;;18.51;41.67
29879;BME280;16752;53.364;-1.488;2023-05-13T00:15:25;101619.59;;;17.69;41.58
29879;BME280;16752;53.364;-1.488;2023-05-13T00:18:10;101753.47;;;18.56;41.07
29879;BME280;16752;53.364;-1.488;2023-05-13T00:21:01;101587.75;;;17.58;41.14
29879;BME280;16752;53.364;-1.488;2023-05-13T00:23:54;101615.78;;;17.96;41.22
29879;BME280;16752;53.364;-1.488;2023-05-13T00:26:39;101664.09;;;17.88;42.27
29879;BME280;16752;53.364;-1.488;2023-05-13T00:29:23;101604.78;;;17.78;41.89
29879;BME280;16752;53.364;-1.488;2023-05-13T00:32:12;101614.34;;;17.92;41.27
29879;BME280;16752;53.364;-1.488;2023-05-13T00:34:59;101581.16;;;17.75;41.23
29879;BME280;16752;53.364;-1.488;2023-05-13T00:37:43;101597.94;;;17.52;42.50
29879;BME280;16752;53.364;-1.488;2023-05-13T00:40:28;101604.34;;;17.84;41.66
29879;BME280;16752;53.364;-1.488;2023-05-13T00:43:13;101569.31;;;17.33;42.56
29879;BME280;16752;53.364;-1.488;2023-05-13T00:46:01;101643.97;;;17.86;42.17
29879;BME280;16752;53.364;-1.488;2023-05-13T00:48:46;101732.00;;;18.02;42.64
29879;BME280;16752;53.364;-1.488;2023-05-13T00:51:31;101671.78;;;17.56;42.92
29879;BME280;16752;53.364;-1.488;2023-05-13T00:54:18;101691.16;;;17.33;43.32
29879;BME280;16752;53.364;-1.488;2023-05-13T00:57:06;101571.56;;;17.50;41.70
29879;BME280;16752;53.364;-1.488;2023-05-13T00:59:50;101640.44;;;17.74;42.21
29879;BME280;16752;53.364;-1.488;2023-05-13T01:02:51;101637.84;;;17.85;41.84
29879;BME280;16752;53.364;-1.488;2023-05-13T01:12:05;101731.31;;;18.11;42.50
29879;BME280;16752;53.364;-1.488;2023-05-13T01:14:55;101667.00;;;17.96;42.11
29879;BME280;16752;53.364;-1.488;2023-05-13T01:20:45;101568.41;;;17.45;41.00
29879;BME280;16752;53.364;-1.488;2023-05-13T01:23:33;101723.44;;;18.45;41.24
29879;BME280;16752;53.364;-1.488;2023-05-13T01:26:28;101724.16;;;18.47;41.42
29879;BME280;16752;53.364;-1.488;2023-05-13T01:29:12;101576.00;;;17.38;41.70
29879;BME280;16752;53.364;-1.488;2023-05-13T01:32:00;101557.63;;;17.59;41.45
29879;BME280;16752;53.364;-1.488;2023-05-13T01:34:58;101717.28;;;18.44;41.06
29879;BME280;16752;53.364;-1.488;2023-05-13T01:37:43;101715.88;;;18.16;42.02
29879;BME280;16752;53.364;-1.488;2023-05-13T01:40:28;101569.91;;;17.60;40.97
29879;BME280;16752;53.364;-1.488;2023-05-13T01:43:12;101557.78;;;17.34;40.97
29879;BME280;16752;53.364;-1.488;2023-05-13T01:45:57;101633.81;;;17.21;42.43
29879;BME280;16752;53.364;-1.488;2023-05-13T01:48:44;101691.88;;;17.71;41.41
29879;BME280;16752;53.364;-1.488;2023-05-13T01:51:28;101693.81;;;18.05;41.30
29879;BME280;16752;53.364;-1.488;2023-05-13T01:54:12;101640.91;;;17.44;41.83
29879;BME280;16752;53.364;-1.488;2023-05-13T01:56:59;101675.31;;;17.81;41.59
29879;BME280;16752;53.364;-1.488;2023-05-13T01:59:43;101607.34;;;17.56;40.93
29879;BME280;16752;53.364;-1.488;2023-05-13T02:02:31;101712.63;;;18.13;41.04
29879;BME280;16752;53.364;-1.488;2023-05-13T02:05:15;101615.88;;;17.48;41.44
29879;BME280;16752;53.364;-1.488;2023-05-13T02:08:06;101577.06;;;16.88;42.01
29879;BME280;16752;53.364;-1.488;2023-05-13T02:10:59;101565.31;;;17.16;40.77
29879;BME280;16752;53.364;-1.488;2023-05-13T02:13:44;101715.56;;;17.97;41.05
29879;BME280;16752;53.364;-1.488;2023-05-13T02:16:40;101582.78;;;17.19;41.04
29879;BME280;16752;53.364;-1.488;2023-05-13T02:19:26;101616.38;;;17.53;41.34
29879;BME280;16752;53.364;-1.488;2023-05-13T02:22:10;101614.25;;;17.58;41.08
29879;BME280;16752;53.364;-1.488;2023-05-13T02:24:54;101617.00;;;17.33;41.67
29879;BME280;16752;53.364;-1.488;2023-05-13T02:27:39;101617.84;;;17.33;41.55
29879;BME280;16752;53.364;-1.488;2023-05-13T02:30:47;101711.72;;;17.90;41.32
29879;BME280;16752;53.364;-1.488;2023-05-13T02:33:32;101609.91;;;17.57;40.54
29879;BME280;16752;53.364;-1.488;2023-05-13T02:36:16;101653.56;;;17.52;41.42
29879;BME280;16752;53.364;-1.488;2023-05-13T02:39:03;101556.41;;;16.57;42.51
29879;BME280;16752;53.364;-1.488;2023-05-13T02:41:53;101615.78;;;17.26;41.73
29879;BME280;16752;53.364;-1.488;2023-05-13T02:44:37;101602.91;;;17.32;41.29
29879;BME280;16752;53.364;-1.488;2023-05-13T02:47:22;101662.16;;;17.79;41.25
29879;BME280;16752;53.364;-1.488;2023-05-13T02:50:07;101559.38;;;16.89;41.52
29879;BME280;16752;53.364;-1.488;2023-05-13T02:52:52;101712.81;;;17.98;41.08
29879;BME280;16752;53.364;-1.488;2023-05-13T02:55:39;101608.41;;;16.07;43.08
29879;BME280;16752;53.364;-1.488;2023-05-13T02:58:23;101565.88;;;16.35;42.50
29879;BME280;16752;53.364;-1.488;2023-05-13T03:01:07;101642.97;;;17.52;41.33
29879;BME280;16752;53.364;-1.488;2023-05-13T03:03:51;101611.28;;;17.15;41.75
29879;BME280;16752;53.364;-1.488;2023-05-13T03:06:44;101581.75;;;17.08;41.76
29879;BME280;16752;53.364;-1.488;2023-05-13T03:09:28;101702.63;;;17.57;42.09
29879;BME280;16752;53.364;-1.488;2023-05-13T03:12:12;101643.56;;;17.20;42.23
29879;BME280;16752;53.364;-1.488;2023-05-13T03:14:56;101547.13;;;16.38;43.08
29879;BME280;16752;53.364;-1.488;2023-05-13T03:17:40;101652.66;;;17.64;41.75
29879;BME280;16752;53.364;-1.488;2023-05-13T03:20:27;101630.91;;;16.76;43.15
29879;BME280;16752;53.364;-1.488;2023-05-13T03:23:11;101647.94;;;17.56;41.49
29879;BME280;16752;53.364;-1.488;2023-05-13T03:25:55;101689.06;;;17.38;42.67
29879;BME280;16752;53.364;-1.488;2023-05-13T03:28:39;101694.81;;;17.80;41.52
29879;BME280;16752;53.364;-1.488;2023-05-13T03:31:23;101625.72;;;16.74;42.68
29879;BME280;16752;53.364;-1.488;2023-05-13T03:34:07;101570.16;;;16.74;42.22
29879;BME280;16752;53.364;-1.488;2023-05-13T03:36:51;101595.44;;;17.26;41.54
29879;BME280;16752;53.364;-1.488;2023-05-13T03:39:38;101558.59;;;16.63;42.04
29879;BME280;16752;53.364;-1.488;2023-05-13T03:42:23;101639.44;;;17.40;41.84
29879;BME280;16752;53.364;-1.488;2023-05-13T03:45:07;101616.19;;;16.46;43.37
29879;BME280;16752;53.364;-1.488;2023-05-13T03:47:52;101597.19;;;17.15;41.95
29879;BME280;16752;53.364;-1.488;2023-05-13T03:50:36;101673.69;;;17.54;42.33
29879;BME280;16752;53.364;-1.488;2023-05-13T03:53:20;101637.94;;;17.25;41.77
29879;BME280;16752;53.364;-1.488;2023-05-13T03:56:04;101673.16;;;17.62;41.26
29879;BME280;16752;53.364;-1.488;2023-05-13T03:58:49;101661.41;;;17.29;41.95
29879;BME280;16752;53.364;-1.488;2023-05-13T04:01:41;101655.50;;;17.26;42.20
29879;BME280;16752;53.364;-1.488;2023-05-13T04:04:28;101608.56;;;17.04;41.86
29879;BME280;16752;53.364;-1.488;2023-05-13T04:07:13;101620.56;;;17.21;41.47
29879;BME280;16752;53.364;-1.488;2023-05-13T04:10:02;101573.75;;;16.97;41.91
29879;BME280;16752;53.364;-1.488;2023-05-13T04:12:46;101653.78;;;17.14;42.89
29879;BME280;16752;53.364;-1.488;2023-05-13T04:15:33;101642.25;;;17.50;41.44
29879;BME280;16752;53.364;-1.488;2023-05-13T04:18:17;101602.69;;;17.11;41.52
29879;BME280;16752;53.364;-1.488;2023-05-13T04:21:06;101638.00;;;17.36;41.69
29879;BME280;16752;53.364;-1.488;2023-05-13T04:23:52;101532.25;;;16.74;41.85
29879;BME280;16752;53.364;-1.488;2023-05-13T04:26:37;101549.88;;;16.86;41.17
29879;BME280;16752;53.364;-1.488;2023-05-13T04:29:21;101635.84;;;17.41;41.67
29879;BME280;16752;53.364;-1.488;2023-05-13T04:32:06;101662.19;;;17.66;41.42
29879;BME280;16752;53.364;-1.488;2023-05-13T04:34:51;101636.72;;;17.29;41.54
29879;BME280;16752;53.364;-1.488;2023-05-13T04:37:36;101620.13;;;16.90;42.34
29879;BME280;16752;53.364;-1.488;2023-05-13T04:40:27;101650.66;;;17.20;42.14
29879;BME280;16752;53.364;-1.488;2023-05-13T04:43:11;101643.34;;;17.23;42.09
29879;BME280;16752;53.364;-1.488;2023-05-13T04:45:58;101610.72;;;17.23;41.32
29879;BME280;16752;53.364;-1.488;2023-05-13T04:48:43;101592.16;;;16.75;41.98
29879;BME280;16752;53.364;-1.488;2023-05-13T04:51:31;101631.03;;;16.98;41.95
29879;BME280;16752;53.364;-1.488;2023-05-13T04:54:18;101729.59;;;17.75;41.37
29879;BME280;16752;53.364;-1.488;2023-05-13T04:57:08;101653.03;;;17.35;41.50
29879;BME280;16752;53.364;-1.488;2023-05-13T04:59:52;101631.53;;;17.03;41.83
29879;BME280;16752;53.364;-1.488;2023-05-13T05:02:39;101539.84;;;16.66;41.18
29879;BME280;16752;53.364;-1.488;2023-05-13T05:05:23;101622.06;;;16.88;42.15
29879;BME280;16752;53.364;-1.488;2023-05-13T05:08:07;101657.16;;;17.16;41.96
29879;BME280;16752;53.364;-1.488;2023-05-13T05:10:54;101638.88;;;17.24;41.42
29879;BME280;16752;53.364;-1.488;2023-05-13T05:13:39;101603.38;;;17.02;41.01
29879;BME280;16752;53.364;-1.488;2023-05-13T05:16:23;101673.44;;;17.46;41.15
29879;BME280;16752;53.364;-1.488;2023-05-13T05:19:07;101636.69;;;17.18;41.03
29879;BME280;16752;53.364;-1.488;2023-05-13T05:22:07;101638.03;;;16.99;41.59
29879;BME280;16752;53.364;-1.488;2023-05-13T05:24:51;101712.47;;;17.55;40.93
29879;BME280;16752;53.364;-1.488;2023-05-13T05:27:44;101575.88;;;16.56;41.83
29879;BME280;16752;53.364;-1.488;2023-05-13T05:30:28;101631.00;;;16.62;41.42
29879;BME280;16752;53.364;-1.488;2023-05-13T05:33:17;101643.69;;;16.69;41.87
29879;BME280;16752;53.364;-1.488;2023-05-13T05:36:04;101753.97;;;17.80;40.85
29879;BME280;16752;53.364;-1.488;2023-05-13T05:38:50;101650.47;;;16.61;42.30
29879;BME280;16752;53.364;-1.488;2023-05-13T05:41:38;101744.06;;;17.58;41.00
29879;BME280;16752;53.364;-1.488;2023-05-13T05:44:22;101716.25;;;17.16;41.68
29879;BME280;16752;53.364;-1.488;2023-05-13T05:47:07;101761.09;;;17.80;40.45
29879;BME280;16752;53.364;-1.488;2023-05-13T05:49:51;101706.03;;;17.35;40.78
29879;BME280;16752;53.364;-1.488;2023-05-13T05:52:38;101741.94;;;17.63;41.02
29879;BME280;16752;53.364;-1.488;2023-05-13T05:55:23;101657.50;;;16.98;41.12
29879;BME280;16752;53.364;-1.488;2023-05-13T05:58:08;101601.09;;;16.85;40.53
29879;BME280;16752;53.364;-1.488;2023-05-13T06:00:54;101746.63;;;17.10;41.97
29879;BME280;16752;53.364;-1.488;2023-05-13T06:03:41;101756.00;;;17.40;42.36
29879;BME280;16752;53.364;-1.488;2023-05-13T06:06:25;101685.13;;;17.31;41.24
29879;BME280;16752;53.364;-1.488;2023-05-13T06:09:09;101696.06;;;17.26;41.83
29879;BME280;16752;53.364;-1.488;2023-05-13T06:11:56;101750.50;;;17.91;41.37
29879;BME280;16752;53.364;-1.488;2023-05-13T06:14:40;101612.34;;;17.36;40.25
29879;BME280;16752;53.364;-1.488;2023-05-13T06:17:24;101681.81;;;17.88;39.90
29879;BME280;16752;53.364;-1.488;2023-05-13T06:20:15;101653.97;;;17.58;39.63
29879;BME280;16752;53.364;-1.488;2023-05-13T06:22:59;101655.69;;;17.59;40.01
29879;BME280;16752;53.364;-1.488;2023-05-13T06:25:43;101714.81;;;17.36;41.81
29879;BME280;16752;53.364;-1.488;2023-05-13T06:28:28;101771.59;;;18.16;40.28
29879;BME280;16752;53.364;-1.488;2023-05-13T06:31:12;101728.81;;;17.86;40.69
29879;BME280;16752;53.364;-1.488;2023-05-13T06:33:56;101774.84;;;18.20;40.33
29879;BME280;16752;53.364;-1.488;2023-05-13T06:36:40;101638.53;;;17.52;40.19
29879;BME280;16752;53.364;-1.488;2023-05-13T06:39:24;101739.78;;;17.92;39.65
29879;BME280;16752;53.364;-1.488;2023-05-13T06:42:08;101733.97;;;18.11;39.19
29879;BME280;16752;53.364;-1.488;2023-05-13T06:44:52;101687.97;;;17.88;39.71
29879;BME280;16752;53.364;-1.488;2023-05-13T06:47:36;101684.34;;;17.89;39.43
29879;BME280;16752;53.364;-1.488;2023-05-13T06:50:23;101672.44;;;17.95;39.42
29879;BME280;16752;53.364;-1.488;2023-05-13T06:53:11;101630.50;;;17.65;40.31
29879;BME280;16752;53.364;-1.488;2023-05-13T06:55:55;101667.56;;;17.78;39.78
29879;BME280;16752;53.364;-1.488;2023-05-13T06:58:39;101767.59;;;18.57;39.28
29879;BME280;16752;53.364;-1.488;2023-05-13T07:01:24;101625.72;;;17.70;39.23
29879;BME280;16752;53.364;-1.488;2023-05-13T07:04:09;101770.25;;;18.46;39.83
29879;BME280;16752;53.364;-1.488;2023-05-13T07:06:53;101685.09;;;17.20;41.09
29879;BME280;16752;53.364;-1.488;2023-05-13T07:09:37;101677.91;;;17.69;39.76
29879;BME280;16752;53.364;-1.488;2023-05-13T07:12:21;101747.47;;;18.19;40.23
29879;BME280;16752;53.364;-1.488;2023-05-13T07:15:06;101701.34;;;18.22;39.35
29879;BME280;16752;53.364;-1.488;2023-05-13T07:17:51;101698.81;;;18.43;39.15
29879;BME280;16752;53.364;-1.488;2023-05-13T07:20:35;101675.69;;;17.98;39.10
29879;BME280;16752;53.364;-1.488;2023-05-13T07:23:19;101722.16;;;18.15;39.42
29879;BME280;16752;53.364;-1.488;2023-05-13T07:26:03;101610.97;;;17.79;38.71
29879;BME280;16752;53.364;-1.488;2023-05-13T07:28:48;101753.06;;;17.68;41.05
29879;BME280;16752;53.364;-1.488;2023-05-13T07:31:32;101633.34;;;16.66;41.20
29879;BME280;16752;53.364;-1.488;2023-05-13T07:34:17;101779.78;;;18.59;39.47
29879;BME280;16752;53.364;-1.488;2023-05-13T07:37:02;101732.28;;;18.21;39.68
29879;BME280;16752;53.364;-1.488;2023-05-13T07:39:47;101617.47;;;17.27;39.96
29879;BME280;16752;53.364;-1.488;2023-05-13T07:42:31;101677.72;;;17.84;40.41
29879;BME280;16752;53.364;-1.488;2023-05-13T07:45:16;101685.88;;;18.16;39.76
29879;BME280;16752;53.364;-1.488;2023-05-13T07:48:00;101697.03;;;17.97;40.09
29879;BME280;16752;53.364;-1.488;2023-05-13T07:50:44;101682.41;;;18.38;38.74
29879;BME280;16752;53.364;-1.488;2023-05-13T07:53:29;101680.34;;;18.41;38.76
29879;BME280;16752;53.364;-1.488;2023-05-13T07:56:13;101660.44;;;17.54;40.27
29879;BME280;16752;53.364;-1.488;2023-05-13T07:58:57;101756.31;;;18.66;39.57
29879;BME280;16752;53.364;-1.488;2023-05-13T08:01:58;101602.22;;;18.23;38.71
29879;BME280;16752;53.364;-1.488;2023-05-13T08:04:42;101760.41;;;18.81;39.18
29879;BME280;16752;53.364;-1.488;2023-05-13T08:07:38;101606.19;;;18.28;37.62
29879;BME280;16752;53.364;-1.488;2023-05-13T08:10:22;101625.00;;;18.37;37.72
29879;BME280;16752;53.364;-1.488;2023-05-13T08:13:06;101749.56;;;18.96;39.36
29879;BME280;16752;53.364;-1.488;2023-05-13T08:15:54;101755.56;;;18.86;38.92
29879;BME280;16752;53.364;-1.488;2023-05-13T08:18:45;101751.47;;;19.05;38.50
29879;BME280;16752;53.364;-1.488;2023-05-13T08:21:29;101653.38;;;17.79;39.55
29879;BME280;16752;53.364;-1.488;2023-05-13T08:24:15;101687.38;;;18.53;38.99
29879;BME280;16752;53.364;-1.488;2023-05-13T08:26:59;101664.34;;;18.87;37.60
29879;BME280;16752;53.364;-1.488;2023-05-13T08:29:43;101681.41;;;18.16;38.45
29879;BME280;16752;53.364;-1.488;2023-05-13T08:32:27;101742.47;;;19.62;37.07
29879;BME280;16752;53.364;-1.488;2023-05-13T08:35:11;101636.53;;;19.03;36.97
29879;BME280;16752;53.364;-1.488;2023-05-13T08:37:55;101717.25;;;19.56;37.61
29879;BME280;16752;53.364;-1.488;2023-05-13T08:40:40;101749.41;;;19.08;38.00
29879;BME280;16752;53.364;-1.488;2023-05-13T08:43:26;101696.09;;;18.67;38.83
29879;BME280;16752;53.364;-1.488;2023-05-13T08:46:11;101715.81;;;19.73;36.85
29879;BME280;16752;53.364;-1.488;2023-05-13T08:48:55;101752.75;;;19.98;36.30
29879;BME280;16752;53.364;-1.488;2023-05-13T08:51:40;101711.78;;;19.90;36.35
29879;BME280;16752;53.364;-1.488;2023-05-13T08:54:25;101723.91;;;19.82;36.67
29879;BME280;16752;53.364;-1.488;2023-05-13T08:57:11;101704.63;;;19.90;36.56
29879;BME280;16752;53.364;-1.488;2023-05-13T08:59:55;101697.63;;;19.03;37.53
29879;BME280;16752;53.364;-1.488;2023-05-13T09:02:42;101751.84;;;19.77;37.88
29879;BME280;16752;53.364;-1.488;2023-05-13T09:05:26;101756.56;;;20.05;37.72
29879;BME280;16752;53.364;-1.488;2023-05-13T09:08:11;101750.28;;;20.27;37.06
29879;BME280;16752;53.364;-1.488;2023-05-13T09:10:55;101667.06;;;19.63;36.98
29879;BME280;16752;53.364;-1.488;2023-05-13T09:13:42;101753.06;;;20.26;37.07
29879;BME280;16752;53.364;-1.488;2023-05-13T09:16:27;101715.81;;;20.05;36.88
29879;BME280;16752;53.364;-1.488;2023-05-13T09:19:11;101715.53;;;19.87;36.90
29879;BME280;16752;53.364;-1.488;2023-05-13T09:21:56;101761.66;;;20.50;36.46
29879;BME280;16752;53.364;-1.488;2023-05-13T09:24:52;101704.63;;;19.04;38.49
29879;BME280;16752;53.364;-1.488;2023-05-13T09:27:39;101747.13;;;18.81;39.20
29879;BME280;16752;53.364;-1.488;2023-05-13T09:30:29;101738.25;;;20.12;37.08
29879;BME280;16752;53.364;-1.488;2023-05-13T09:33:17;101652.41;;;19.89;36.20
29879;BME280;16752;53.364;-1.488;2023-05-13T09:36:05;101689.88;;;19.97;36.26
29879;BME280;16752;53.364;-1.488;2023-05-13T09:38:51;101688.06;;;19.98;36.79
29879;BME280;16752;53.364;-1.488;2023-05-13T09:41:38;101668.38;;;19.89;36.39
29879;BME280;16752;53.364;-1.488;2023-05-13T09:44:22;101755.06;;;19.26;38.68
29879;BME280;16752;53.364;-1.488;2023-05-13T09:47:10;101727.69;;;20.22;36.05
29879;BME280;16752;53.364;-1.488;2023-05-13T09:49:55;101644.56;;;19.67;37.01
29879;BME280;16752;53.364;-1.488;2023-05-13T09:52:43;101641.66;;;19.91;35.48
29879;BME280;16752;53.364;-1.488;2023-05-13T09:55:37;101620.84;;;19.75;35.78
29879;BME280;16752;53.364;-1.488;2023-05-13T09:58:27;101637.00;;;19.83;35.90
29879;BME280;16752;53.364;-1.488;2023-05-13T10:01:21;101748.13;;;20.84;34.95
29879;BME280;16752;53.364;-1.488;2023-05-13T10:04:05;101653.47;;;20.19;35.33
29879;BME280;16752;53.364;-1.488;2023-05-13T10:06:50;101660.09;;;20.34;34.75
29879;BME280;16752;53.364;-1.488;2023-05-13T10:09:38;101627.63;;;20.09;34.98
29879;BME280;16752;53.364;-1.488;2023-05-13T10:12:30;101750.31;;;20.79;35.21
29879;BME280;16752;53.364;-1.488;2023-05-13T10:15:17;101630.56;;;20.06;36.16
29879;BME280;16752;53.364;-1.488;2023-05-13T10:18:01;101714.94;;;20.67;36.10
29879;BME280;16752;53.364;-1.488;2023-05-13T10:20:53;101679.09;;;20.71;35.07
29879;BME280;16752;53.364;-1.488;2023-05-13T10:23:40;101582.19;;;20.22;34.51
29879;BME280;16752;53.364;-1.488;2023-05-13T10:26:26;101638.66;;;20.56;34.97
29879;BME280;16752;53.364;-1.488;2023-05-13T10:29:12;101705.63;;;20.10;36.44
29879;BME280;16752;53.364;-1.488;2023-05-13T10:31:57;101700.06;;;20.95;35.40
29879;BME280;16752;53.364;-1.488;2023-05-13T10:34:43;101569.16;;;20.59;34.54
29879;BME280;16752;53.364;-1.488;2023-05-13T10:37:43;101718.84;;;21.43;35.18
29879;BME280;16752;53.364;-1.488;2023-05-13T10:44:00;101663.19;;;21.00;35.96
29879;BME280;16752;53.364;-1.488;2023-05-13T10:46:48;101715.78;;;21.96;34.90
29879;BME280;16752;53.364;-1.488;2023-05-13T10:49:53;101719.59;;;21.15;35.03
29879;BME280;16752;53.364;-1.488;2023-05-13T10:52:42;101714.97;;;22.15;34.12
29879;BME280;16752;53.364;-1.488;2023-05-13T10:55:28;101669.00;;;22.21;33.80
29879;BME280;16752;53.364;-1.488;2023-05-13T10:58:13;101713.16;;;22.52;33.76
29879;BME280;16752;53.364;-1.488;2023-05-13T11:04:13;101658.41;;;22.39;32.06
29879;BME280;16752;53.364;-1.488;2023-05-13T11:07:13;101715.22;;;22.12;34.24
29879;BME280;16752;53.364;-1.488;2023-05-13T11:09:58;101656.88;;;21.01;34.78
29879;BME280;16752;53.364;-1.488;2023-05-13T11:15:59;101656.41;;;21.75;34.19
29879;BME280;16752;53.364;-1.488;2023-05-13T11:18:43;101633.78;;;21.21;34.96
29879;BME280;16752;53.364;-1.488;2023-05-13T11:21:31;101646.47;;;22.70;32.36
29879;BME280;16752;53.364;-1.488;2023-05-13T11:24:25;101692.94;;;23.14;31.52
29879;BME280;16752;53.364;-1.488;2023-05-13T11:27:12;101682.34;;;22.95;33.21
29879;BME280;16752;53.364;-1.488;2023-05-13T11:29:58;101635.69;;;22.90;32.35
29879;BME280;16752;53.364;-1.488;2023-05-13T11:35:52;101684.03;;;23.24;31.70
29879;BME280;16752;53.364;-1.488;2023-05-13T11:38:37;101578.56;;;22.45;31.53
29879;BME280;16752;53.364;-1.488;2023-05-13T11:41:21;101575.66;;;22.29;32.60
29879;BME280;16752;53.364;-1.488;2023-05-13T11:44:06;101612.06;;;22.30;31.97
29879;BME280;16752;53.364;-1.488;2023-05-13T11:49:45;101670.00;;;23.57;31.63
29879;BME280;16752;53.364;-1.488;2023-05-13T11:52:32;101667.16;;;23.76;30.81
29879;BME280;16752;53.364;-1.488;2023-05-13T11:58:12;101580.50;;;23.34;31.62
29879;BME280;16752;53.364;-1.488;2023-05-13T12:00:57;101573.25;;;22.63;33.45
29879;BME280;16752;53.364;-1.488;2023-05-13T12:03:42;101648.88;;;21.01;36.03
29879;BME280;16752;53.364;-1.488;2023-05-13T12:06:26;101642.25;;;21.55;34.96
29879;BME280;16752;53.364;-1.488;2023-05-13T12:09:10;101574.53;;;21.94;33.89
29879;BME280;16752;53.364;-1.488;2023-05-13T12:11:55;101579.13;;;23.12;31.34
29879;BME280;16752;53.364;-1.488;2023-05-13T12:14:40;101602.34;;;23.47;31.47
29879;BME280;16752;53.364;-1.488;2023-05-13T12:17:25;101644.41;;;22.92;33.07
29879;BME280;16752;53.364;-1.488;2023-05-13T12:20:17;101620.28;;;23.90;30.82
29879;BME280;16752;53.364;-1.488;2023-05-13T12:23:01;101594.88;;;21.95;33.28
29879;BME280;16752;53.364;-1.488;2023-05-13T12:25:47;101583.84;;;23.36;32.76
29879;BME280;16752;53.364;-1.488;2023-05-13T12:28:34;101533.09;;;23.88;31.12
29879;BME280;16752;53.364;-1.488;2023-05-13T12:31:21;101641.59;;;22.93;33.48
29879;BME280;16752;53.364;-1.488;2023-05-13T12:34:06;101569.06;;;22.61;32.39
29879;BME280;16752;53.364;-1.488;2023-05-13T12:36:50;101631.38;;;23.06;33.15
29879;BME280;16752;53.364;-1.488;2023-05-13T12:39:34;101543.41;;;22.68;33.83
29879;BME280;16752;53.364;-1.488;2023-05-13T12:42:19;101517.66;;;23.12;33.77
29879;BME280;16752;53.364;-1.488;2023-05-13T12:45:04;101618.66;;;25.00;30.78
29879;BME280;16752;53.364;-1.488;2023-05-13T12:47:49;101533.47;;;24.93;30.46
29879;BME280;16752;53.364;-1.488;2023-05-13T12:50:33;101554.97;;;25.50;28.91
29879;BME280;16752;53.364;-1.488;2023-05-13T12:53:17;101500.50;;;25.25;28.45
29879;BME280;16752;53.364;-1.488;2023-05-13T12:56:01;101608.56;;;23.65;31.03
29879;BME280;16752;53.364;-1.488;2023-05-13T12:58:45;101579.16;;;24.67;30.78
29879;BME280;16752;53.364;-1.488;2023-05-13T13:01:29;101522.66;;;24.45;31.48
29879;BME280;16752;53.364;-1.488;2023-05-13T13:04:13;101540.50;;;23.94;30.87
29879;BME280;16752;53.364;-1.488;2023-05-13T13:06:59;101602.44;;;25.74;29.27
29879;BME280;16752;53.364;-1.488;2023-05-13T13:09:43;101593.09;;;23.59;30.62
29879;BME280;16752;53.364;-1.488;2023-05-13T13:12:27;101556.72;;;24.68;30.28
29879;BME280;16752;53.364;-1.488;2023-05-13T13:15:11;101554.28;;;25.16;29.86
29879;BME280;16752;53.364;-1.488;2023-05-13T13:17:55;101539.16;;;24.74;30.16
29879;BME280;16752;53.364;-1.488;2023-05-13T13:20:39;101512.28;;;25.96;28.16
29879;BME280;16752;53.364;-1.488;2023-05-13T13:23:24;101449.94;;;25.78;27.40
29879;BME280;16752;53.364;-1.488;2023-05-13T13:26:08;101554.53;;;26.02;29.56
29879;BME280;16752;53.364;-1.488;2023-05-13T13:28:52;101496.97;;;25.41;28.33
29879;BME280;16752;53.364;-1.488;2023-05-13T13:31:36;101433.75;;;25.94;28.26
29879;BME280;16752;53.364;-1.488;2023-05-13T13:34:20;101520.97;;;26.76;27.23
29879;BME280;16752;53.364;-1.488;2023-05-13T13:37:04;101492.59;;;26.12;28.88
29879;BME280;16752;53.364;-1.488;2023-05-13T13:39:50;101512.28;;;26.89;26.66
29879;BME280;16752;53.364;-1.488;2023-05-13T13:42:40;101485.28;;;26.83;26.54
29879;BME280;16752;53.364;-1.488;2023-05-13T13:45:24;101472.94;;;26.73;27.83
29879;BME280;16752;53.364;-1.488;2023-05-13T13:48:08;101461.53;;;26.71;27.97
29879;BME280;16752;53.364;-1.488;2023-05-13T13:50:52;101512.09;;;25.18;29.51
29879;BME280;16752;53.364;-1.488;2023-05-13T13:53:37;101508.38;;;27.23;26.36
29879;BME280;16752;53.364;-1.488;2023-05-13T13:56:23;101461.91;;;27.44;27.22
29879;BME280;16752;53.364;-1.488;2023-05-13T13:59:07;101528.63;;;25.62;27.79
29879;BME280;16752;53.364;-1.488;2023-05-13T14:01:51;101550.59;;;25.66;28.72
29879;BME280;16752;53.364;-1.488;2023-05-13T14:04:36;101452.94;;;26.53;27.37
29879;BME280;16752;53.364;-1.488;2023-05-13T14:07:20;101492.91;;;24.88;29.84
29879;BME280;16752;53.364;-1.488;2023-05-13T14:10:05;101465.25;;;26.70;27.05
29879;BME280;16752;53.364;-1.488;2023-05-13T14:12:49;101447.25;;;27.46;27.11
29879;BME280;16752;53.364;-1.488;2023-05-13T14:15:33;101455.81;;;25.65;28.56
29879;BME280;16752;53.364;-1.488;2023-05-13T14:18:21;101377.00;;;25.03;27.84
29879;BME280;16752;53.364;-1.488;2023-05-13T14:21:05;101447.78;;;26.66;29.49
29879;BME280;16752;53.364;-1.488;2023-05-13T14:23:49;101491.59;;;28.39;26.40
29879;BME280;16752;53.364;-1.488;2023-05-13T14:26:34;101445.59;;;25.69;28.42
29879;BME280;16752;53.364;-1.488;2023-05-13T14:29:18;101510.81;;;25.85;29.22
29879;BME280;16752;53.364;-1.488;2023-05-13T14:32:02;101382.47;;;26.80;26.68
29879;BME280;16752;53.364;-1.488;2023-05-13T14:34:46;101470.31;;;27.78;25.38
29879;BME280;16752;53.364;-1.488;2023-05-13T14:37:30;101484.94;;;26.63;27.44
29879;BME280;16752;53.364;-1.488;2023-05-13T14:40:14;101502.03;;;26.70;27.17
29879;BME280;16752;53.364;-1.488;2023-05-13T14:43:08;101371.66;;;26.20;27.64
29879;BME280;16752;53.364;-1.488;2023-05-13T14:45:52;101373.19;;;27.06;28.45